Time;durP1;ratioP1;P1;durP2;ratioP2;P2;SDS_P1;SDS_P2;PMS_P1;PMS_P2;Temp;Humidity;BMP_temperature;BMP_pressure;BME280_temperature;BME280_humidity;BME280_pressure;Samples;Min_cycle;Max_cycle;Signal;HPM_P1;HPM_P2
2023/05/11 00:08:58;;;;;;;25.77;15.90;;;;;11.60;100909.00;;;;10435541;24;20877;-76
2023/05/11 00:14:25;;;;;;;25.30;16.10;;;;;11.60;100907.00;;;;11314687;24;20198;31
2023/05/11 00:19:27;;;;;;;24.50;15.77;;;;;11.60;100906.00;;;;9798506;29;21553;-76
2023/05/11 00:24:28;;;;;;;25.47;15.67;;;;;11.60;100898.00;;;;9791406;29;21512;-76
2023/05/11 00:29:29;;;;;;;23.40;14.50;;;;;11.70;100910.00;;;;9814563;29;20339;-74
2023/05/11 00:34:30;;;;;;;26.80;14.90;;;;;11.70;100898.00;;;;9815244;29;20224;-75
2023/05/11 00:39:37;;;;;;;22.03;14.00;;;;;11.70;100899.00;;;;9822653;29;20254;-78
2023/05/11 00:44:38;;;;;;;25.60;14.93;;;;;11.70;100895.00;;;;9791560;29;20842;-76
2023/05/11 00:49:40;;;;;;;21.27;13.77;;;;;11.70;100901.00;;;;9819875;29;20939;-75
2023/05/11 00:54:42;;;;;;;22.07;14.30;;;;;11.70;100891.00;;;;9836331;29;20272;-76
2023/05/11 00:59:43;;;;;;;26.93;14.57;;;;;11.70;100890.00;;;;9834463;29;20317;-75
2023/05/11 01:04:44;;;;;;;19.87;14.13;;;;;11.70;100896.00;;;;9836415;29;20539;-76
2023/05/11 01:10:01;;;;;;;19.00;13.37;;;;;11.70;100886.00;;;;9847791;29;20243;-76
2023/05/11 01:15:15;;;;;;;17.97;12.03;;;;;11.60;100887.00;;;;9840672;29;20234;-77
2023/05/11 01:20:22;;;;;;;24.40;13.27;;;;;11.60;100881.00;;;;9826791;29;20233;-77
2023/05/11 01:26:08;;;;;;;23.63;12.93;;;;;11.60;100883.00;;;;9844133;29;20239;-77
2023/05/11 01:31:12;;;;;;;22.37;12.30;;;;;11.60;100896.00;;;;9823173;29;20456;-77
2023/05/11 01:36:16;;;;;;;25.30;11.53;;;;;11.50;100891.00;;;;9844073;29;20315;-77
2023/05/11 01:41:21;;;;;;;23.30;11.23;;;;;11.60;100888.00;;;;9836598;29;20222;-77
2023/05/11 01:46:25;;;;;;;23.80;11.67;;;;;11.50;100891.00;;;;9851042;29;20235;-74
2023/05/11 01:51:33;;;;;;;25.53;11.63;;;;;11.50;100891.00;;;;9851503;29;20381;-75
2023/05/11 01:56:36;;;;;;;18.20;10.83;;;;;11.50;100890.00;;;;9852375;29;21201;-74
2023/05/11 02:01:39;;;;;;;22.50;10.70;;;;;11.40;100894.00;;;;9837334;29;20223;-75
2023/05/11 02:06:43;;;;;;;23.97;10.43;;;;;11.40;100899.00;;;;9850734;29;20871;-75
2023/05/11 02:11:47;;;;;;;17.90;11.17;;;;;11.30;100904.00;;;;9871078;29;20323;-77
2023/05/11 02:16:53;;;;;;;20.33;10.60;;;;;11.30;100908.00;;;;10076620;24;20322;-78
2023/05/11 02:21:55;;;;;;;26.43;9.33;;;;;11.30;100905.00;;;;9902920;29;21365;-77
2023/05/11 02:26:57;;;;;;;20.67;9.43;;;;;11.20;100903.00;;;;9900222;29;20601;-78
2023/05/11 02:32:06;;;;;;;24.97;9.60;;;;;11.20;100911.00;;;;9852577;29;20234;-78
2023/05/11 02:37:11;;;;;;;27.93;9.10;;;;;11.10;100907.00;;;;9866879;29;20858;-76
2023/05/11 02:42:19;;;;;;;21.17;8.63;;;;;11.10;100901.00;;;;9854941;29;20229;-77
2023/05/11 02:47:26;;;;;;;22.57;8.17;;;;;11.10;100899.00;;;;9856313;29;20626;-77
2023/05/11 02:52:29;;;;;;;23.60;10.13;;;;;11.00;100898.00;;;;9854452;29;20675;-76
2023/05/11 02:57:30;;;;;;;24.73;9.77;;;;;11.00;100900.00;;;;9849941;29;20304;-77
2023/05/11 03:02:36;;;;;;;20.67;10.80;;;;;11.00;100900.00;;;;9852545;29;20895;-77
2023/05/11 03:07:39;;;;;;;28.23;9.87;;;;;11.00;100901.00;;;;9845740;29;20222;-76
2023/05/11 03:12:42;;;;;;;22.97;10.57;;;;;11.00;100898.00;;;;9859253;29;20368;-77
2023/05/11 03:17:45;;;;;;;30.47;9.83;;;;;11.00;100900.00;;;;9860485;29;20258;-77
2023/05/11 03:28:56;;;;;;;25.43;9.80;;;;;10.90;100902.00;;;;10457860;24;20325;-76
2023/05/11 03:33:57;;;;;;;24.90;9.73;;;;;10.90;100894.00;;;;9809292;29;20943;-76
2023/05/11 03:39:01;;;;;;;28.43;10.80;;;;;10.80;100897.00;;;;9815769;29;20530;-78
2023/05/11 03:44:07;;;;;;;27.10;10.43;;;;;10.70;100898.00;;;;9805952;29;20222;-78
2023/05/11 03:49:11;;;;;;;25.00;10.90;;;;;10.80;100910.00;;;;9816323;29;20251;-77
2023/05/11 03:54:15;;;;;;;38.97;13.17;;;;;10.80;100909.00;;;;9830864;29;20399;-77
2023/05/11 03:59:17;;;;;;;30.03;13.37;;;;;10.90;100904.00;;;;9832942;29;21759;-77
2023/05/11 04:04:19;;;;;;;33.20;14.30;;;;;10.90;100907.00;;;;9837884;29;20399;-77
2023/05/11 04:09:21;;;;;;;31.10;14.23;;;;;11.00;100913.00;;;;9825510;29;20330;-76
2023/05/11 04:14:22;;;;;;;33.60;16.17;;;;;11.00;100906.00;;;;9861601;29;20222;-77
2023/05/11 04:19:24;;;;;;;32.10;15.37;;;;;11.00;100923.00;;;;9832530;29;20602;-77
2023/05/11 04:24:25;;;;;;;35.03;16.30;;;;;11.00;100918.00;;;;9866747;29;20314;-80
2023/05/11 04:29:27;;;;;;;41.87;15.97;;;;;11.00;100914.00;;;;9866950;29;20725;-79
2023/05/11 04:34:28;;;;;;;35.90;16.13;;;;;11.00;100915.00;;;;9844388;29;20222;-77
2023/05/11 04:39:30;;;;;;;37.43;16.40;;;;;11.10;100911.00;;;;9826572;29;20223;-77
2023/05/11 04:44:31;;;;;;;31.07;13.90;;;;;11.10;100916.00;;;;9846707;29;20700;-77
2023/05/11 04:49:33;;;;;;;35.30;15.50;;;;;11.10;100922.00;;;;9844504;29;20234;-77
2023/05/11 04:54:35;;;;;;;33.53;14.43;;;;;11.10;100923.00;;;;9814107;29;20249;-76
2023/05/11 04:59:37;;;;;;;32.17;14.57;;;;;11.20;100928.00;;;;9786024;29;20219;-77
2023/05/11 05:04:38;;;;;;;37.33;15.87;;;;;11.30;100926.00;;;;9814760;29;20223;-75
2023/05/11 05:09:40;;;;;;;38.23;16.57;;;;;11.50;100936.00;;;;9822819;29;21379;-77
2023/05/11 05:14:45;;;;;;;36.33;16.87;;;;;11.70;100935.00;;;;9810601;29;20917;-78
2023/05/11 05:19:47;;;;;;;38.97;16.43;;;;;11.90;100936.00;;;;9820547;29;20223;-77
2023/05/11 05:24:49;;;;;;;29.53;15.90;;;;;12.20;100932.00;;;;9784257;29;20239;-78
2023/05/11 05:29:51;;;;;;;32.00;16.17;;;;;12.50;100934.00;;;;9799210;29;20315;-77
2023/05/11 05:34:53;;;;;;;38.67;16.70;;;;;12.70;100936.00;;;;9792058;29;20223;-77
2023/05/11 05:39:55;;;;;;;32.23;16.77;;;;;12.90;100946.00;;;;9803111;29;20262;-79
2023/05/11 05:44:57;;;;;;;32.00;14.87;;;;;13.00;100956.00;;;;9793313;29;20297;-76
2023/05/11 05:49:58;;;;;;;33.23;14.07;;;;;13.20;100957.00;;;;9814863;29;20348;-80
2023/05/11 05:54:59;;;;;;;31.30;13.70;;;;;13.50;100959.00;;;;9811277;29;20227;-81
2023/05/11 06:00:01;;;;;;;26.73;13.63;;;;;13.90;100958.00;;;;9809488;29;20224;-80
2023/05/11 06:05:13;;;;;;;34.37;13.33;;;;;14.30;100966.00;;;;9816525;29;20337;-80
2023/05/11 06:10:15;;;;;;;25.77;12.73;;;;;14.50;100963.00;;;;9817779;29;20240;-81
2023/05/11 06:15:18;;;;;;;25.60;13.00;;;;;14.70;100968.00;;;;9827765;29;20808;-82
2023/05/11 06:20:25;;;;;;;24.60;12.07;;;;;14.80;100975.00;;;;9798922;29;20231;-76
2023/05/11 06:25:27;;;;;;;27.10;12.35;;;;;14.90;100971.00;;;;9811746;29;20227;-74
2023/05/11 06:30:30;;;;;;;16.27;10.40;;;;;15.40;100975.00;;;;9821206;29;20259;-75
2023/05/11 06:35:32;;;;;;;15.45;8.98;;;;;15.60;100977.00;;;;9798096;29;20369;-74
2023/05/11 06:40:33;;;;;;;15.48;8.95;;;;;15.80;100983.00;;;;9795209;29;20246;-76
2023/05/11 06:45:35;;;;;;;15.43;9.48;;;;;16.20;100980.00;;;;9805584;29;21567;-76
2023/05/11 06:50:37;;;;;;;18.13;9.00;;;;;16.40;100970.00;;;;9781156;29;20247;-76
2023/05/11 06:55:38;;;;;;;18.17;8.88;;;;;16.70;100988.00;;;;9798645;29;20631;-76
2023/05/11 07:00:40;;;;;;;15.88;9.40;;;;;16.40;100990.00;;;;9802222;29;20310;-76
2023/05/11 07:05:41;;;;;;;15.43;8.85;;;;;16.20;100997.00;;;;9806361;29;20314;-75
2023/05/11 07:10:43;;;;;;;17.85;8.73;;;;;16.60;100993.00;;;;9827237;29;21928;-75
2023/05/11 07:15:44;;;;;;;20.00;9.40;;;;;17.00;100992.00;;;;9803852;29;20219;-75
2023/05/11 07:20:48;;;;;;;16.33;8.55;;;;;17.70;100998.00;;;;9817941;29;20862;-75
2023/05/11 07:25:52;;;;;;;12.85;7.50;;;;;18.70;100985.00;;;;9810825;29;20709;-75
2023/05/11 07:30:53;;;;;;;16.50;7.05;;;;;17.90;100999.00;;;;9799102;29;20355;-75
2023/05/11 07:35:55;;;;;;;11.95;6.80;;;;;17.40;101013.00;;;;9820205;29;20226;-76
2023/05/11 07:40:56;;;;;;;14.23;6.70;;;;;17.70;101008.00;;;;9820827;29;20224;-75
2023/05/11 07:45:57;;;;;;;8.15;5.45;;;;;17.30;101018.00;;;;9817777;29;21327;-75
2023/05/11 07:51:00;;;;;;;12.63;6.20;;;;;17.80;101003.00;;;;9797747;29;20252;-75
2023/05/11 07:56:02;;;;;;;14.60;6.50;;;;;18.30;101007.00;;;;9825130;29;20307;-75
2023/05/11 08:01:04;;;;;;;14.27;6.18;;;;;19.40;101001.00;;;;9820879;29;21212;-75
2023/05/11 08:06:06;;;;;;;14.57;6.78;;;;;19.80;101014.00;;;;9801440;29;20219;-77
2023/05/11 08:11:08;;;;;;;11.73;6.38;;;;;18.60;101018.00;;;;9806233;29;20281;-75
2023/05/11 08:16:09;;;;;;;13.35;6.00;;;;;18.00;101031.00;;;;9805943;29;22037;-75
2023/05/11 08:21:11;;;;;;;12.88;6.00;;;;;17.60;101024.00;;;;9806092;29;20298;-75
2023/05/11 08:26:12;;;;;;;8.15;5.22;;;;;17.90;101027.00;;;;9805033;29;20373;-75
2023/05/11 08:31:14;;;;;;;13.80;5.53;;;;;18.20;101024.00;;;;9793001;29;20365;-75
2023/05/11 08:36:16;;;;;;;13.55;6.30;;;;;18.20;101014.00;;;;9806051;29;20226;-75
2023/05/11 08:41:17;;;;;;;12.18;5.43;;;;;18.30;101013.00;;;;9807709;29;20224;-75
2023/05/11 08:46:22;;;;;;;13.98;5.60;;;;;18.50;101022.00;;;;9806835;29;20292;-76
2023/05/11 08:51:23;;;;;;;13.27;5.60;;;;;18.60;101014.00;;;;9790857;29;21047;-76
2023/05/11 08:56:26;;;;;;;14.55;5.20;;;;;18.50;101027.00;;;;9810882;29;20230;-76
2023/05/11 09:01:28;;;;;;;9.93;4.68;;;;;18.10;101022.00;;;;9814746;29;20739;-76
2023/05/11 09:06:30;;;;;;;6.75;4.70;;;;;18.00;101025.00;;;;9795340;29;22005;-76
2023/05/11 09:11:32;;;;;;;8.07;4.35;;;;;19.00;101024.00;;;;9797176;29;20291;-76
2023/05/11 09:16:33;;;;;;;5.63;3.83;;;;;19.80;101027.00;;;;9797534;29;21315;-76
2023/05/11 09:21:38;;;;;;;8.23;4.10;;;;;20.50;101020.00;;;;9817187;29;20231;-76
2023/05/11 09:26:40;;;;;;;10.07;4.50;;;;;20.20;101029.00;;;;9800219;29;20846;-77
2023/05/11 09:31:42;;;;;;;9.38;3.90;;;;;20.00;101019.00;;;;9812840;29;21548;-76
2023/05/11 09:36:46;;;;;;;7.20;3.45;;;;;20.10;101025.00;;;;9813934;29;20228;-76
2023/05/11 09:41:47;;;;;;;12.95;5.40;;;;;19.80;101031.00;;;;9798108;29;20274;-76
2023/05/11 09:46:50;;;;;;;9.32;4.82;;;;;19.50;101031.00;;;;9798360;29;20216;-77
2023/05/11 09:51:59;;;;;;;10.32;5.05;;;;;18.80;101027.00;;;;9797607;29;22093;-76
2023/05/11 09:57:01;;;;;;;10.15;3.65;;;;;20.80;101022.00;;;;9815385;29;20232;-77
2023/05/11 10:02:18;;;;;;;10.00;3.78;;;;;22.50;101018.00;;;;9794726;29;20231;-76
2023/05/11 10:07:26;;;;;;;6.63;3.50;;;;;24.60;101008.00;;;;9813340;29;20502;-76
2023/05/11 10:12:29;;;;;;;7.15;3.28;;;;;24.80;101024.00;;;;9813446;29;20235;-76
2023/05/11 10:17:31;;;;;;;7.68;3.78;;;;;23.30;101013.00;;;;9815974;29;20254;-76
2023/05/11 10:22:32;;;;;;;10.27;4.30;;;;;21.50;101012.00;;;;9815604;29;20930;-77
2023/05/11 10:27:36;;;;;;;9.95;3.85;;;;;20.70;101018.00;;;;9807812;29;20242;-76
2023/05/11 10:32:37;;;;;;;8.80;4.20;;;;;21.30;100998.00;;;;9799367;29;21976;-76
2023/05/11 10:37:41;;;;;;;5.03;3.42;;;;;23.10;100988.00;;;;9796902;29;21015;-77
2023/05/11 10:43:17;;;;;;;9.05;3.85;;;;;22.60;101005.00;;;;9812094;29;20231;-76
2023/05/11 10:49:08;;;;;;;7.93;4.00;;;;;20.00;101002.00;;;;9812559;29;20219;-76
2023/05/11 10:54:36;;;;;;;8.13;4.38;;;;;20.10;100984.00;;;;9798410;29;20247;-76
2023/05/11 11:00:30;;;;;;;6.82;4.25;;;;;20.00;100990.00;;;;9769175;29;20231;-76
2023/05/11 11:05:39;;;;;;;8.43;4.40;;;;;22.10;100979.00;;;;9810142;29;21937;-76
2023/05/11 11:10:45;;;;;;;9.98;4.15;;;;;21.70;100997.00;;;;9810571;29;20326;-76
2023/05/11 11:15:53;;;;;;;7.97;3.88;;;;;20.40;100971.00;;;;9794639;29;21888;-76
2023/05/11 11:20:56;;;;;;;8.70;3.65;;;;;23.00;100975.00;;;;9808789;29;20316;-76
2023/05/11 11:25:58;;;;;;;10.23;3.53;;;;;25.60;100962.00;;;;9798320;29;20232;-83
2023/05/11 11:31:38;;;;;;;6.05;3.40;;;;;23.70;100969.00;;;;9843861;29;20351;-76
2023/05/11 11:36:57;;;;;;;8.85;3.20;;;;;22.50;100960.00;;;;9593865;30;20230;-77
2023/05/11 11:42:08;;;;;;;7.00;3.10;;;;;25.30;100949.00;;;;9759138;29;20284;-79
2023/05/11 11:47:21;;;;;;;8.00;3.25;;;;;26.90;100957.00;;;;9797146;29;21231;-81
2023/05/11 11:52:25;;;;;;;6.00;3.05;;;;;25.90;100953.00;;;;9817316;29;20277;-78
2023/05/11 11:57:36;;;;;;;7.50;2.88;;;;;24.50;100951.00;;;;9810228;29;20368;-76
2023/05/11 12:02:42;;;;;;;7.15;3.20;;;;;25.60;100950.00;;;;9807807;29;20276;-77
2023/05/11 12:07:51;;;;;;;6.03;3.53;;;;;27.20;100949.00;;;;9780955;29;20235;-80
2023/05/11 12:12:53;;;;;;;8.52;2.88;;;;;28.10;100945.00;;;;9794872;29;20475;-79
2023/05/11 12:17:55;;;;;;;8.20;3.08;;;;;28.20;100945.00;;;;9776775;29;20595;-78
2023/05/11 12:22:57;;;;;;;7.72;3.20;;;;;28.90;100932.00;;;;9792152;29;20512;-78
2023/05/11 12:28:00;;;;;;;7.95;3.10;;;;;29.30;100929.00;;;;9814258;29;20258;-83
2023/05/11 12:33:03;;;;;;;5.93;2.92;;;;;27.50;100941.00;;;;9800009;29;22159;-79
2023/05/11 12:38:04;;;;;;;5.30;2.83;;;;;25.10;100933.00;;;;9814720;29;20310;-80
2023/05/11 12:43:05;;;;;;;7.40;3.92;;;;;23.50;100927.00;;;;9853961;29;20230;-83
2023/05/11 12:48:09;;;;;;;10.52;4.40;;;;;23.10;100927.00;;;;9940515;24;20313;-78
2023/05/11 12:53:15;;;;;;;8.90;3.97;;;;;25.10;100925.00;;;;9888801;29;20483;-80
2023/05/11 12:58:18;;;;;;;7.57;4.78;;;;;25.80;100938.00;;;;9886923;29;20652;-79
2023/05/11 13:03:24;;;;;;;7.18;4.35;;;;;25.30;100929.00;;;;9855290;29;21362;-76
2023/05/11 13:08:25;;;;;;;10.65;4.38;;;;;24.90;100923.00;;;;9869491;29;20423;-79
2023/05/11 13:13:28;;;;;;;8.80;3.92;;;;;24.30;100922.00;;;;9884809;29;20763;-79
2023/05/11 13:18:29;;;;;;;10.02;4.53;;;;;22.70;100930.00;;;;9871510;29;20299;-77
2023/05/11 13:29:17;;;;;;;11.63;5.05;;;;;21.00;100925.00;;;;9877445;24;20977;-81
2023/05/11 13:34:19;;;;;;;10.43;4.50;;;;;21.40;100927.00;;;;9815606;29;20231;-80
2023/05/11 13:39:20;;;;;;;6.60;4.13;;;;;21.30;100920.00;;;;9841816;29;20219;-84
2023/05/11 13:44:22;;;;;;;8.43;4.43;;;;;22.10;100907.00;;;;9806064;29;20227;-80
2023/05/11 13:49:23;;;;;;;6.03;3.90;;;;;23.70;100908.00;;;;9798037;29;20312;-79
2023/05/11 13:54:24;;;;;;;7.30;3.00;;;;;24.90;100904.00;;;;9800298;29;20829;-80
2023/05/11 13:59:26;;;;;;;7.40;2.85;;;;;24.90;100894.00;;;;9811668;29;20222;-80
2023/05/11 14:04:27;;;;;;;6.15;3.40;;;;;25.40;100894.00;;;;9815830;29;20227;-80
2023/05/11 14:09:29;;;;;;;9.15;5.05;;;;;25.30;100888.00;;;;9813210;29;20483;-79
2023/05/11 14:14:31;;;;;;;11.60;6.20;;;;;24.40;100899.00;;;;9816613;29;21029;-80
2023/05/11 14:19:33;;;;;;;15.32;11.02;;;;;23.80;100895.00;;;;9820632;29;20309;-81
2023/05/11 14:24:34;;;;;;;12.77;9.02;;;;;22.80;100900.00;;;;9822811;29;20572;-80
2023/05/11 14:29:35;;;;;;;11.80;6.63;;;;;23.40;100874.00;;;;9821219;29;20807;-80
2023/05/11 14:34:41;;;;;;;10.45;5.63;;;;;24.80;100874.00;;;;9822998;29;20320;-80
2023/05/11 14:39:43;;;;;;;10.95;7.78;;;;;25.00;100872.00;;;;9811369;29;20299;-80
2023/05/11 14:44:45;;;;;;;14.43;8.93;;;;;24.60;100876.00;;;;9813001;29;20306;-79
2023/05/11 14:49:46;;;;;;;11.75;7.45;;;;;23.90;100896.00;;;;9811104;29;20246;-79
2023/05/11 14:54:48;;;;;;;10.18;6.82;;;;;25.40;100887.00;;;;9811787;29;20223;-81
2023/05/11 14:59:50;;;;;;;9.43;5.60;;;;;24.60;100897.00;;;;9804660;29;21018;-79
2023/05/11 15:05:01;;;;;;;8.13;5.13;;;;;24.20;100895.00;;;;9808271;29;20769;-79
2023/05/11 15:10:04;;;;;;;8.10;6.22;;;;;23.70;100900.00;;;;9798737;29;20279;-78
2023/05/11 15:15:07;;;;;;;10.82;7.03;;;;;21.60;100895.00;;;;9826824;29;20226;-78
2023/05/11 15:20:09;;;;;;;15.68;9.10;;;;;20.40;100892.00;;;;9821805;29;20332;-78
2023/05/11 15:25:10;;;;;;;13.02;8.52;;;;;20.30;100902.00;;;;9812565;29;20448;-80
2023/05/11 15:30:13;;;;;;;17.15;11.85;;;;;19.70;100915.00;;;;9817283;29;21271;-79
2023/05/11 15:35:15;;;;;;;14.68;9.52;;;;;18.70;100919.00;;;;9814242;29;20845;-79
2023/05/11 15:40:17;;;;;;;20.92;12.40;;;;;17.70;100932.00;;;;9824666;29;20233;-79
2023/05/11 15:45:18;;;;;;;21.30;12.55;;;;;17.20;100941.00;;;;9782140;29;20307;-79
2023/05/11 15:50:20;;;;;;;17.15;10.45;;;;;16.80;100952.00;;;;9784987;29;21009;-79
2023/05/11 15:55:23;;;;;;;11.20;7.03;;;;;16.40;100954.00;;;;9821670;29;20350;-80
2023/05/11 16:00:25;;;;;;;14.38;9.18;;;;;16.30;100964.00;;;;9803499;29;20876;-79
2023/05/11 16:05:27;;;;;;;15.00;9.27;;;;;16.20;100981.00;;;;9816235;29;20484;-80
2023/05/11 16:10:28;;;;;;;20.33;10.70;;;;;16.00;100985.00;;;;9792610;29;20459;-83
2023/05/11 16:15:30;;;;;;;17.95;10.80;;;;;15.70;100985.00;;;;9821671;29;20788;-78
2023/05/11 16:20:32;;;;;;;17.13;9.57;;;;;15.50;100989.00;;;;9798439;29;20442;-78
2023/05/11 16:25:33;;;;;;;13.90;8.88;;;;;15.10;100986.00;;;;9811958;29;20333;-81
2023/05/11 16:30:35;;;;;;;12.85;8.57;;;;;14.40;100994.00;;;;9821311;29;20362;-81
2023/05/11 16:35:36;;;;;;;15.18;8.57;;;;;14.10;100995.00;;;;9803326;29;20230;-79
2023/05/11 16:40:44;;;;;;;14.55;8.13;;;;;14.10;101011.00;;;;9817308;29;20238;-80
2023/05/11 16:45:46;;;;;;;16.52;7.90;;;;;13.90;101013.00;;;;9802493;29;20220;-78
2023/05/11 16:50:48;;;;;;;12.68;7.85;;;;;13.90;101023.00;;;;9819579;29;20377;-79
2023/05/11 16:55:49;;;;;;;13.35;7.68;;;;;13.90;101033.00;;;;9831359;29;20310;-77
2023/05/11 17:00:51;;;;;;;12.15;7.25;;;;;13.90;101047.00;;;;9811798;29;20227;-78
2023/05/11 17:05:52;;;;;;;13.57;7.80;;;;;13.90;101040.00;;;;9810425;29;20236;-78
2023/05/11 17:10:54;;;;;;;10.60;6.97;;;;;13.80;101045.00;;;;9826637;29;20244;-79
2023/05/11 17:15:56;;;;;;;17.67;8.20;;;;;13.60;101042.00;;;;9814364;29;20247;-75
2023/05/11 17:20:57;;;;;;;10.32;7.22;;;;;13.60;101052.00;;;;9807514;29;20310;-77
2023/05/11 17:26:05;;;;;;;13.40;7.80;;;;;13.50;101047.00;;;;9803907;29;20234;-77
2023/05/11 17:31:12;;;;;;;15.88;9.30;;;;;13.60;101046.00;;;;9787951;29;20244;-76
2023/05/11 17:36:13;;;;;;;13.27;8.68;;;;;13.60;101046.00;;;;9804389;29;20565;-77
2023/05/11 17:41:14;;;;;;;12.50;8.07;;;;;13.50;101043.00;;;;9819246;29;20235;-78
2023/05/11 17:46:16;;;;;;;14.20;9.25;;;;;13.60;101048.00;;;;9810199;29;20951;-79
2023/05/11 17:51:19;;;;;;;13.90;8.60;;;;;13.60;101039.00;;;;9806869;29;20243;-79
2023/05/11 17:56:21;;;;;;;15.13;7.93;;;;;13.60;101042.00;;;;9769137;29;20234;-79
2023/05/11 18:01:22;;;;;;;17.58;7.65;;;;;13.60;101049.00;;;;9801657;29;20220;-78
2023/05/11 18:06:23;;;;;;;16.63;8.57;;;;;13.50;101053.00;;;;9816068;29;20227;-76
2023/05/11 18:11:25;;;;;;;11.57;9.20;;;;;13.60;101065.00;;;;9791969;29;20247;-75
2023/05/11 18:16:27;;;;;;;15.10;8.73;;;;;13.60;101078.00;;;;9806138;29;20296;-76
2023/05/11 18:21:29;;;;;;;12.00;8.33;;;;;13.50;101077.00;;;;9825155;29;20304;-75
2023/05/11 18:26:30;;;;;;;13.50;9.52;;;;;13.40;101072.00;;;;9801520;29;20629;-75
2023/05/11 18:31:31;;;;;;;16.00;10.53;;;;;13.40;101078.00;;;;9825571;29;20277;-75
2023/05/11 18:36:33;;;;;;;20.43;12.27;;;;;13.40;101091.00;;;;9807090;29;20822;-76
2023/05/11 18:41:34;;;;;;;20.23;12.50;;;;;13.30;101083.00;;;;9788451;29;20239;-74
2023/05/11 18:46:36;;;;;;;17.40;11.70;;;;;13.30;101085.00;;;;9786377;29;20215;-76
2023/05/11 18:51:37;;;;;;;14.07;9.47;;;;;13.00;101070.00;;;;9801631;29;20235;-74
2023/05/11 18:56:38;;;;;;;13.97;9.23;;;;;12.90;101079.00;;;;9806689;29;20851;-75
2023/05/11 19:01:41;;;;;;;15.63;11.17;;;;;12.80;101081.00;;;;9802404;29;20228;-75
2023/05/11 19:06:47;;;;;;;15.80;9.67;;;;;12.80;101082.00;;;;9806048;29;20228;-76
2023/05/11 19:11:48;;;;;;;18.03;10.97;;;;;12.80;101078.00;;;;9810594;29;22069;-77
2023/05/11 19:16:49;;;;;;;18.03;12.57;;;;;12.80;101071.00;;;;9810336;29;20280;-76
2023/05/11 19:21:51;;;;;;;18.20;11.83;;;;;12.80;101079.00;;;;9797619;29;20323;-77
2023/05/11 19:26:53;;;;;;;21.10;13.53;;;;;12.70;101075.00;;;;9791896;29;20902;-76
2023/05/11 19:32:07;;;;;;;12.57;10.00;;;;;12.60;101075.00;;;;9787782;29;20250;-76
2023/05/11 19:37:09;;;;;;;13.00;9.60;;;;;12.50;101074.00;;;;9788052;29;20224;-77
2023/05/11 19:42:10;;;;;;;15.83;9.73;;;;;12.40;101075.00;;;;9802920;29;20296;-78
2023/05/11 19:47:12;;;;;;;10.73;8.87;;;;;12.30;101069.00;;;;9798208;29;20846;-76
2023/05/11 19:52:13;;;;;;;11.47;8.03;;;;;12.20;101080.00;;;;9813619;29;20745;-77
2023/05/11 19:57:14;;;;;;;9.63;8.57;;;;;12.10;101080.00;;;;9804654;29;20251;-76
2023/05/11 20:02:16;;;;;;;12.00;9.23;;;;;12.20;101081.00;;;;9820776;29;20559;-78
2023/05/11 20:07:19;;;;;;;13.10;10.87;;;;;12.20;101080.00;;;;9816134;29;20227;-77
2023/05/11 20:12:20;;;;;;;17.20;12.40;;;;;12.20;101076.00;;;;9797474;29;20278;-76
2023/05/11 20:17:21;;;;;;;18.70;13.03;;;;;12.30;101070.00;;;;9796383;29;20306;-76
2023/05/11 20:22:23;;;;;;;16.20;13.57;;;;;12.40;101077.00;;;;9795661;29;20232;-76
2023/05/11 20:27:24;;;;;;;18.50;13.97;;;;;12.40;101075.00;;;;9809708;29;20846;-76
2023/05/11 20:32:25;;;;;;;21.77;14.53;;;;;12.40;101075.00;;;;9793682;29;20247;-77
2023/05/11 20:37:26;;;;;;;22.37;15.27;;;;;12.40;101071.00;;;;9809801;29;21891;-76
2023/05/11 20:42:28;;;;;;;28.03;15.47;;;;;12.50;101069.00;;;;9809808;29;20235;-76
2023/05/11 20:47:30;;;;;;;21.60;15.03;;;;;12.50;101076.00;;;;9808827;29;20387;-77
2023/05/11 20:52:31;;;;;;;24.90;14.47;;;;;12.50;101081.00;;;;9810474;29;20243;-78
2023/05/11 20:57:33;;;;;;;24.33;16.60;;;;;12.60;101075.00;;;;9813057;29;20224;-76
2023/05/11 21:02:34;;;;;;;21.93;16.13;;;;;12.60;101077.00;;;;9817028;29;20230;-76
2023/05/11 21:07:36;;;;;;;25.50;17.60;;;;;12.50;101083.00;;;;9816665;29;20291;-76
2023/05/11 21:12:38;;;;;;;23.57;16.90;;;;;12.50;101076.00;;;;9814715;29;20281;-76
2023/05/11 21:17:40;;;;;;;27.70;17.70;;;;;12.50;101079.00;;;;9798363;29;20226;-77
2023/05/11 21:22:41;;;;;;;26.10;17.33;;;;;12.50;101076.00;;;;9795060;29;20306;-78
2023/05/11 21:27:42;;;;;;;25.17;17.40;;;;;12.50;101078.00;;;;9797073;29;22158;-77
2023/05/11 21:32:45;;;;;;;27.03;18.07;;;;;12.50;101074.00;;;;9815349;29;20840;-76
2023/05/11 21:37:48;;;;;;;24.50;18.47;;;;;12.50;101073.00;;;;9817079;29;20230;-76
2023/05/11 21:42:49;;;;;;;26.27;18.00;;;;;12.50;101078.00;;;;9800712;29;20215;-76
2023/05/11 21:47:51;;;;;;;27.57;18.67;;;;;12.40;101079.00;;;;9802463;29;21923;-78
2023/05/11 21:52:52;;;;;;;28.20;19.13;;;;;12.40;101068.00;;;;9804697;29;20693;-77
2023/05/11 21:57:54;;;;;;;31.60;19.17;;;;;12.40;101071.00;;;;9820511;29;20227;-79
2023/05/11 22:02:55;;;;;;;31.27;20.13;;;;;12.40;101073.00;;;;9818386;29;20316;-77
2023/05/11 22:07:57;;;;;;;29.97;20.93;;;;;12.40;101078.00;;;;9804378;29;20567;-77
2023/05/11 22:13:14;;;;;;;32.47;21.27;;;;;12.40;101073.00;;;;9818384;29;20412;-77
2023/05/11 22:18:15;;;;;;;32.40;20.93;;;;;12.40;101079.00;;;;9820751;29;21475;-78
2023/05/11 22:23:17;;;;;;;33.53;22.73;;;;;12.50;101078.00;;;;9803219;29;20220;-77
2023/05/11 22:28:18;;;;;;;38.43;23.40;;;;;12.50;101071.00;;;;9823113;29;20230;-77
2023/05/11 22:33:20;;;;;;;33.60;21.90;;;;;12.50;101069.00;;;;9806385;29;20231;-76
2023/05/11 22:38:21;;;;;;;34.43;24.63;;;;;12.50;101063.00;;;;9819210;29;20231;-77
2023/05/11 22:43:22;;;;;;;39.00;25.57;;;;;12.50;101066.00;;;;9821078;29;20235;-77
2023/05/11 22:48:24;;;;;;;40.33;25.47;;;;;12.60;101071.00;;;;9804125;29;20226;-77
2023/05/11 22:53:26;;;;;;;44.33;26.50;;;;;12.50;101064.00;;;;9819844;29;20362;-77
2023/05/11 22:58:27;;;;;;;41.73;25.93;;;;;12.50;101078.00;;;;9819959;29;20231;-77
2023/05/11 23:03:29;;;;;;;48.53;26.87;;;;;12.50;101069.00;;;;9818763;29;20223;-77
2023/05/11 23:08:31;;;;;;;41.13;26.93;;;;;12.40;101071.00;;;;9787588;29;21284;-77
2023/05/11 23:13:32;;;;;;;49.00;27.87;;;;;12.40;101072.00;;;;9799419;29;20243;-77
2023/05/11 23:18:33;;;;;;;50.30;28.00;;;;;12.40;101071.00;;;;9817215;29;20242;-77
2023/05/11 23:23:35;;;;;;;44.57;28.13;;;;;12.40;101065.00;;;;9817006;29;20224;-78
2023/05/11 23:28:36;;;;;;;49.50;28.50;;;;;12.40;101066.00;;;;9816238;29;21906;-75
2023/05/11 23:33:38;;;;;;;55.07;31.60;;;;;12.40;101065.00;;;;9799766;29;21539;-76
2023/05/11 23:38:39;;;;;;;50.47;28.00;;;;;12.40;101057.00;;;;9787776;29;20280;-78
2023/05/11 23:43:41;;;;;;;47.67;29.63;;;;;12.30;101058.00;;;;9799177;29;20843;-77
2023/05/11 23:48:42;;;;;;;54.87;30.10;;;;;12.30;101047.00;;;;9816158;29;20227;-77
2023/05/11 23:53:45;;;;;;;56.90;31.07;;;;;12.30;101051.00;;;;9816329;29;20331;-78
2023/05/11 23:58:46;;;;;;;54.87;31.40;;;;;12.30;101047.00;;;;9802342;29;20242;-77
